Grindsted, Denmark
Current Conditions -  °F | °C
As of 10:50 AM on Tuesday 21 Oct 2014 (Local Time) from EKBI Reporting Station
Broken Clouds Broken Clouds  
Wind Chill: 52°   Ceiling: 3700
Heat Index: 52°   Visibility: 6mi
Dew Point: 52°   Wind: 9mph
Humidity: 100%   Direction: 160°SSE
Pressure: 29.53"   Gusts: NA
Location:  55.75°N, 8.91°E
Report Text: EKBI 210850Z AUTO 16008KT 9999NDV SCT005/// BKN037/// BKN074/// 11/11 Q1000
Loading
Personal Weather Stations






























Interactive Weather Map
Tropical Storm Tracking
New forecast layout! Learn more

10-Day Weather Forecast

Advertisements
Track Severe Weather on mobile